createdAt,value
2018-02-17T00:02:07.410Z,8.10
2018-02-17T00:04:36.262Z,7.77
2018-02-17T00:07:05.133Z,7.60
2018-02-17T00:09:34.015Z,7.10
2018-02-17T00:12:02.891Z,7.17
2018-02-17T00:14:31.751Z,7.70
2018-02-17T00:17:00.627Z,7.87
2018-02-17T00:19:29.483Z,7.63
2018-02-17T00:21:58.346Z,6.83
2018-02-17T00:24:27.200Z,8.90
2018-02-17T00:26:56.109Z,7.63
2018-02-17T00:29:24.975Z,6.97
2018-02-17T00:31:53.863Z,8.83
2018-02-17T00:34:22.724Z,7.17
2018-02-17T00:36:51.583Z,7.20
2018-02-17T00:39:20.529Z,7.60
2018-02-17T00:41:49.471Z,6.97
2018-02-17T00:44:18.463Z,8.50
2018-02-17T00:46:47.455Z,7.17
2018-02-17T00:49:16.332Z,8.13
2018-02-17T00:51:45.211Z,7.27
2018-02-17T00:54:14.087Z,7.70
2018-02-17T00:56:42.943Z,7.57
2018-02-17T00:59:11.839Z,8.23
2018-02-17T01:01:40.699Z,7.43
2018-02-17T01:04:09.624Z,8.20
2018-02-17T01:06:38.491Z,8.00
2018-02-17T01:09:07.363Z,6.90
2018-02-17T01:11:36.238Z,7.40
2018-02-17T01:14:05.096Z,7.23
2018-02-17T01:16:33.967Z,7.43
2018-02-17T01:19:02.833Z,6.77
2018-02-17T01:21:31.855Z,7.10
2018-02-17T01:24:00.760Z,7.73
2018-02-17T01:26:29.635Z,7.03
2018-02-17T01:28:58.487Z,8.33
2018-02-17T01:31:27.361Z,8.07
2018-02-17T01:33:56.211Z,8.20
2018-02-17T01:36:25.084Z,10.10
2018-02-17T01:38:53.938Z,7.50
2018-02-17T01:41:22.806Z,9.23
2018-02-17T01:43:51.692Z,8.80
2018-02-17T01:46:20.559Z,7.60
2018-02-17T01:48:49.415Z,10.60
2018-02-17T01:51:18.303Z,7.97
2018-02-17T01:53:47.159Z,7.57
2018-02-17T01:56:16.034Z,9.53
2018-02-17T01:58:44.900Z,7.30
2018-02-17T02:01:13.755Z,7.30
2018-02-17T02:03:42.630Z,9.50
2018-02-17T02:06:11.483Z,7.67
2018-02-17T02:08:40.360Z,8.67
2018-02-17T02:11:09.206Z,8.00
2018-02-17T02:13:38.072Z,7.00
2018-02-17T02:16:06.931Z,8.83
2018-02-17T02:18:35.799Z,8.80
2018-02-17T02:21:04.654Z,7.60
2018-02-17T02:23:33.534Z,8.57
2018-02-17T02:26:02.387Z,9.60
2018-02-17T02:28:31.280Z,8.27
2018-02-17T02:31:00.206Z,7.63
2018-02-17T02:33:29.031Z,9.03
2018-02-17T02:35:57.905Z,7.27
2018-02-17T02:38:26.763Z,7.30
2018-02-17T02:40:55.637Z,7.37
2018-02-17T02:43:24.487Z,7.87
2018-02-17T02:45:53.359Z,7.63
2018-02-17T02:48:22.271Z,6.90
2018-02-17T02:50:51.144Z,7.30
2018-02-17T02:53:19.999Z,8.10
2018-02-17T02:55:48.871Z,6.77
2018-02-17T02:58:17.731Z,7.87
2018-02-17T03:00:46.604Z,7.47
2018-02-17T03:03:15.458Z,9.70
2018-02-17T03:05:44.336Z,7.83
2018-02-17T03:08:13.178Z,7.60
2018-02-17T03:10:42.050Z,6.70
2018-02-17T03:13:10.907Z,7.67
2018-02-17T03:15:39.802Z,6.60
2018-02-17T03:18:08.665Z,8.93
2018-02-17T03:20:37.527Z,6.30
2018-02-17T03:23:06.396Z,7.03
2018-02-17T03:25:35.251Z,6.53
2018-02-17T03:28:04.123Z,6.80
2018-02-17T03:30:32.975Z,6.90
2018-02-17T03:33:01.842Z,7.50
2018-02-17T03:35:30.713Z,7.13
2018-02-17T03:37:59.599Z,6.30
2018-02-17T03:40:28.459Z,5.93
2018-02-17T03:42:57.332Z,5.67
2018-02-17T03:45:26.178Z,6.57
2018-02-17T03:47:55.047Z,6.93
2018-02-17T03:50:23.895Z,6.03
2018-02-17T03:52:52.763Z,6.40
2018-02-17T03:55:21.626Z,6.83
2018-02-17T03:57:50.515Z,7.37
2018-02-17T04:00:19.363Z,6.50
2018-02-17T04:02:48.220Z,5.70
2018-02-17T04:05:17.098Z,6.83
2018-02-17T04:07:46.003Z,6.47
2018-02-17T04:10:14.876Z,6.37
2018-02-17T04:12:43.738Z,6.00
2018-02-17T04:15:12.610Z,6.27
2018-02-17T04:17:41.462Z,6.20
2018-02-17T04:20:10.339Z,5.87
2018-02-17T04:22:39.187Z,9.83
2018-02-17T04:25:08.066Z,6.90
2018-02-17T04:27:36.919Z,7.67
2018-02-17T04:30:05.796Z,7.07
2018-02-17T04:32:34.648Z,7.70
2018-02-17T04:35:03.539Z,7.07
2018-02-17T04:37:32.391Z,7.60
2018-02-17T04:40:16.135Z,7.10
2018-02-17T04:42:47.747Z,6.90
2018-02-17T04:45:21.513Z,6.10
2018-02-17T04:48:10.043Z,7.77
2018-02-17T04:50:53.797Z,6.23
2018-02-17T04:53:39.301Z,7.00
2018-02-17T04:56:08.166Z,5.43
2018-02-17T04:58:39.907Z,7.53
2018-02-17T05:01:09.567Z,6.57
2018-02-17T05:03:44.064Z,6.50
2018-02-17T05:06:16.583Z,6.63
2018-02-17T05:08:48.090Z,6.33
2018-02-17T05:11:16.982Z,6.53
2018-02-17T05:13:45.839Z,5.80
2018-02-17T05:16:18.236Z,7.03
2018-02-17T05:18:54.586Z,6.23
2018-02-17T05:21:38.330Z,5.57
2018-02-17T05:24:08.955Z,5.53
2018-02-17T05:26:52.704Z,6.67
2018-02-17T05:29:36.434Z,6.23
2018-02-17T05:32:08.982Z,6.03
2018-02-17T05:34:53.475Z,5.80
2018-02-17T05:37:22.378Z,6.10
2018-02-17T05:40:07.014Z,5.70
2018-02-17T05:42:38.671Z,6.00
2018-02-17T05:45:11.332Z,5.33
2018-02-17T05:47:41.992Z,5.67
2018-02-17T05:50:10.839Z,6.27
2018-02-17T05:52:39.700Z,5.20
2018-02-17T05:55:08.570Z,7.03
2018-02-17T05:57:37.421Z,6.67
2018-02-17T06:00:06.302Z,5.50
2018-02-17T06:02:35.167Z,4.83
2018-02-17T06:05:04.034Z,6.07
2018-02-17T06:07:33.011Z,4.90
2018-02-17T06:10:01.891Z,6.10
2018-02-17T06:12:30.746Z,4.93
2018-02-17T06:14:59.627Z,5.43
2018-02-17T06:17:28.486Z,5.80
2018-02-17T06:19:57.391Z,4.70
2018-02-17T06:22:26.247Z,5.80
2018-02-17T06:24:55.110Z,6.40
2018-02-17T06:27:23.986Z,4.47
2018-02-17T06:29:52.851Z,5.30
2018-02-17T06:32:21.759Z,5.10
2018-02-17T06:34:50.620Z,5.60
2018-02-17T06:37:19.510Z,4.33
2018-02-17T06:39:48.366Z,4.40
2018-02-17T06:42:17.247Z,4.37
2018-02-17T06:44:46.108Z,4.93
2018-02-17T06:47:14.991Z,4.80
2018-02-17T06:49:43.855Z,4.87
2018-02-17T06:52:12.727Z,4.70
2018-02-17T06:54:41.662Z,5.87
2018-02-17T06:57:10.540Z,4.40
2018-02-17T06:59:39.420Z,5.13
2018-02-17T07:02:08.289Z,5.13
2018-02-17T07:04:37.169Z,5.10
2018-02-17T07:07:06.531Z,4.50
2018-02-17T07:09:35.431Z,5.57
2018-02-17T07:12:04.295Z,4.47
2018-02-17T07:14:33.220Z,4.80
2018-02-17T07:17:02.095Z,4.13
2018-02-17T07:19:30.990Z,5.30
2018-02-17T07:21:59.858Z,4.83
2018-02-17T07:24:28.759Z,3.87
2018-02-17T07:26:57.636Z,5.37
2018-02-17T07:29:26.516Z,5.00
2018-02-17T07:31:55.395Z,4.20
2018-02-17T07:34:24.299Z,4.77
2018-02-17T07:36:53.155Z,4.53
2018-02-17T07:39:22.013Z,3.90
2018-02-17T07:41:50.893Z,4.97
2018-02-17T07:44:19.775Z,3.87
2018-02-17T07:46:48.671Z,4.77
2018-02-17T07:49:17.553Z,5.60
2018-02-17T07:51:46.443Z,4.67
2018-02-17T07:54:15.323Z,5.03
2018-02-17T07:56:44.203Z,4.77
2018-02-17T07:59:13.067Z,5.93
2018-02-17T08:01:41.972Z,5.97
2018-02-17T08:04:10.867Z,6.00
2018-02-17T08:06:39.770Z,7.03
2018-02-17T08:09:08.654Z,5.47
2018-02-17T08:11:37.538Z,5.73
2018-02-17T08:14:06.407Z,5.07
2018-02-17T08:16:35.293Z,5.47
2018-02-17T08:19:04.179Z,7.10
2018-02-17T08:21:33.059Z,5.57
2018-02-17T08:24:01.932Z,7.37
2018-02-17T08:26:30.801Z,6.20
2018-02-17T08:28:59.701Z,6.33
2018-02-17T08:31:28.656Z,6.23
2018-02-17T08:33:57.532Z,7.03
2018-02-17T08:36:26.519Z,6.03
2018-02-17T08:38:55.431Z,5.40
2018-02-17T08:41:24.299Z,6.40
2018-02-17T08:43:53.203Z,6.03
2018-02-17T08:46:22.060Z,6.00
2018-02-17T08:48:50.973Z,6.10
2018-02-17T08:51:19.862Z,5.90
2018-02-17T08:53:48.740Z,6.17
2018-02-17T08:56:17.599Z,6.23
2018-02-17T08:58:46.524Z,7.33
2018-02-17T09:01:15.381Z,6.20
2018-02-17T09:03:44.254Z,7.50
2018-02-17T09:06:13.127Z,6.83
2018-02-17T09:08:41.996Z,7.93
2018-02-17T09:11:10.892Z,8.37
2018-02-17T09:13:39.774Z,7.80
2018-02-17T09:16:08.699Z,7.73
2018-02-17T09:18:37.562Z,7.50
2018-02-17T09:21:06.473Z,7.07
2018-02-17T09:23:35.330Z,7.60
2018-02-17T09:26:04.234Z,8.20
2018-02-17T09:28:33.102Z,7.90
2018-02-17T09:31:02.034Z,9.03
2018-02-17T09:33:30.923Z,7.30
2018-02-17T09:35:59.791Z,7.97
2018-02-17T09:38:28.671Z,8.00
2018-02-17T09:40:57.547Z,7.87
2018-02-17T09:43:26.438Z,8.07
2018-02-17T09:45:55.295Z,7.67
2018-02-17T09:48:22.911Z,7.93
2018-02-17T09:50:51.222Z,8.10
2018-02-17T09:53:18.752Z,8.10
2018-02-17T09:55:46.287Z,10.07
2018-02-17T09:58:13.844Z,7.93
2018-02-17T10:00:42.139Z,7.43
2018-02-17T10:03:10.427Z,7.90
2018-02-17T10:05:38.740Z,7.87
2018-02-17T10:08:06.292Z,7.53
2018-02-17T10:10:33.833Z,7.47
2018-02-17T10:13:01.423Z,7.17
2018-02-17T10:15:28.986Z,7.23
2018-02-17T10:17:56.512Z,8.77
2018-02-17T10:20:24.087Z,7.27
2018-02-17T10:22:51.624Z,7.83
2018-02-17T10:25:19.915Z,8.00
2018-02-17T10:27:47.457Z,8.27
2018-02-17T10:30:15.764Z,7.30
2018-02-17T10:32:43.274Z,7.40
2018-02-17T10:35:10.832Z,7.07
2018-02-17T10:37:38.377Z,7.03
2018-02-17T10:40:05.948Z,7.03
2018-02-17T10:42:33.463Z,7.07
2018-02-17T10:45:01.044Z,6.70
2018-02-17T10:47:28.558Z,8.93
2018-02-17T10:49:56.831Z,7.03
2018-02-17T10:52:25.160Z,7.47
2018-02-17T10:54:52.681Z,7.43
2018-02-17T10:57:20.999Z,6.50
2018-02-17T10:59:48.520Z,7.20
2018-02-17T11:02:16.839Z,7.20
2018-02-17T11:04:44.352Z,6.50
2018-02-17T11:07:12.668Z,6.93
2018-02-17T11:09:40.171Z,7.83
2018-02-17T11:12:07.731Z,6.37
2018-02-17T11:14:35.265Z,7.33
2018-02-17T11:17:02.831Z,7.83
2018-02-17T11:19:31.699Z,7.50
2018-02-17T11:22:00.608Z,6.33
2018-02-17T11:24:29.492Z,6.47
2018-02-17T11:26:58.383Z,7.30
2018-02-17T11:29:27.236Z,6.37
2018-02-17T11:31:56.119Z,6.33
2018-02-17T11:34:24.993Z,6.53
2018-02-17T11:36:52.560Z,5.50
2018-02-17T11:39:20.076Z,6.70
2018-02-17T11:41:47.627Z,6.53
2018-02-17T11:44:15.176Z,6.03
2018-02-17T11:46:42.714Z,5.40
2018-02-17T11:49:11.017Z,6.07
2018-02-17T11:51:38.544Z,5.87
2018-02-17T11:54:06.083Z,5.70
2018-02-17T11:56:33.626Z,6.30
2018-02-17T11:59:01.176Z,5.60
2018-02-17T12:01:28.714Z,6.17
2018-02-17T12:03:57.017Z,5.73
2018-02-17T12:06:24.546Z,5.80
2018-02-17T12:08:52.873Z,6.27
2018-02-17T12:11:20.396Z,5.73
2018-02-17T12:13:47.919Z,5.27
2018-02-17T12:16:15.430Z,5.20
2018-02-17T12:18:42.968Z,5.90
2018-02-17T12:21:11.261Z,6.07
2018-02-17T12:23:38.841Z,6.03
2018-02-17T12:26:06.360Z,5.53
2018-02-17T12:28:34.640Z,5.30
2018-02-17T12:31:02.952Z,5.63
2018-02-17T12:33:30.482Z,5.77
2018-02-17T12:35:58.787Z,6.03
2018-02-17T12:38:26.302Z,5.53
2018-02-17T12:40:54.678Z,5.73
2018-02-17T12:43:22.206Z,5.03
2018-02-17T12:45:49.768Z,5.00
2018-02-17T12:48:17.312Z,5.23
2018-02-17T12:50:44.916Z,5.90
2018-02-17T12:53:13.228Z,5.00
2018-02-17T12:55:41.533Z,4.97
2018-02-17T12:58:09.097Z,5.17
2018-02-17T13:00:37.384Z,5.03
2018-02-17T13:03:04.916Z,5.13
2018-02-17T13:05:32.476Z,4.77
2018-02-17T13:08:00.016Z,4.57
2018-02-17T13:10:27.571Z,4.53
2018-02-17T13:12:55.875Z,5.67
2018-02-17T13:15:23.408Z,4.73
2018-02-17T13:17:51.716Z,4.80
2018-02-17T13:20:19.245Z,5.70
2018-02-17T13:22:47.545Z,5.00
2018-02-17T13:25:15.098Z,4.53
2018-02-17T13:27:43.404Z,4.93
2018-02-17T13:30:10.945Z,5.03
2018-02-17T13:32:38.487Z,4.50
2018-02-17T13:35:06.810Z,5.10
2018-02-17T13:37:34.368Z,5.10
2018-02-17T13:40:01.905Z,5.20
2018-02-17T13:42:29.452Z,4.23
2018-02-17T13:44:56.996Z,4.30
2018-02-17T13:47:24.536Z,4.50
2018-02-17T13:49:52.088Z,6.30
2018-02-17T13:52:19.655Z,4.40
2018-02-17T13:54:47.199Z,5.00
2018-02-17T13:57:14.740Z,5.23
2018-02-17T13:59:42.408Z,5.37
2018-02-17T14:02:09.800Z,3.97
2018-02-17T14:04:37.343Z,4.60
2018-02-17T14:07:05.640Z,4.13
2018-02-17T14:09:33.180Z,3.80
2018-02-17T14:12:00.710Z,4.60
2018-02-17T14:14:28.248Z,4.83
2018-02-17T14:16:56.544Z,4.80
2018-02-17T14:19:24.084Z,4.77
2018-02-17T14:21:52.386Z,4.60
2018-02-17T14:24:19.941Z,4.53
2018-02-17T14:26:47.454Z,4.30
2018-02-17T14:29:14.983Z,5.10
2018-02-17T14:31:42.556Z,4.00
2018-02-17T14:34:10.237Z,4.93
2018-02-17T14:36:37.804Z,4.57
2018-02-17T14:39:05.339Z,4.83
2018-02-17T14:41:32.865Z,5.13
2018-02-17T14:44:01.180Z,6.60
2018-02-17T14:46:28.696Z,4.93
2018-02-17T14:48:57.016Z,5.53
2018-02-17T14:51:24.576Z,4.97
2018-02-17T14:53:52.111Z,4.97
2018-02-17T14:56:19.671Z,4.93
2018-02-17T14:58:47.191Z,4.93
2018-02-17T15:01:14.729Z,6.13
2018-02-17T15:03:42.267Z,5.03
2018-02-17T15:06:09.808Z,4.73
2018-02-17T15:08:37.320Z,5.23
2018-02-17T15:11:04.896Z,5.70
2018-02-17T15:13:32.438Z,6.97
2018-02-17T15:15:59.980Z,5.47
2018-02-17T15:18:27.500Z,6.33
2018-02-17T15:20:55.809Z,4.83
2018-02-17T15:23:23.352Z,5.57
2018-02-17T15:25:50.901Z,5.30
2018-02-17T15:28:18.476Z,5.73
2018-02-17T15:30:46.004Z,5.30
2018-02-17T15:33:13.544Z,4.83
2018-02-17T15:35:41.071Z,5.73
2018-02-17T15:38:08.616Z,5.93
2018-02-17T15:40:36.232Z,5.33
2018-02-17T15:43:03.768Z,5.13
2018-02-17T15:45:31.276Z,4.80
2018-02-17T15:47:58.828Z,4.97
2018-02-17T15:50:26.348Z,7.93
2018-02-17T15:52:53.879Z,6.10
2018-02-17T15:55:21.413Z,4.10
2018-02-17T15:57:49.071Z,5.27
2018-02-17T16:00:16.610Z,4.97
2018-02-17T16:02:44.937Z,4.97
2018-02-17T16:05:12.456Z,6.00
2018-02-17T16:07:39.964Z,5.60
2018-02-17T16:10:07.504Z,6.07
2018-02-17T16:12:35.016Z,6.53
2018-02-17T16:15:03.320Z,6.00
2018-02-17T16:17:30.840Z,6.60
2018-02-17T16:19:58.372Z,5.53
2018-02-17T16:22:25.880Z,6.13
2018-02-17T16:24:54.174Z,5.80
2018-02-17T16:27:21.696Z,6.27
2018-02-17T16:29:49.228Z,6.43
2018-02-17T16:32:16.745Z,7.07
2018-02-17T16:34:45.033Z,7.40
2018-02-17T16:37:12.552Z,7.37
2018-02-17T16:39:40.080Z,7.17
2018-02-17T16:42:07.595Z,8.13
2018-02-17T16:44:35.892Z,11.77
2018-02-17T16:47:03.405Z,10.03
2018-02-17T16:49:30.962Z,10.33
2018-02-17T16:51:58.482Z,10.10
2018-02-17T16:54:25.992Z,9.97
2018-02-17T16:56:53.524Z,9.80
2018-02-17T16:59:21.070Z,9.60
2018-02-17T17:01:48.600Z,9.77
2018-02-17T17:04:16.878Z,9.17
2018-02-17T17:06:45.195Z,10.17
2018-02-17T17:09:12.714Z,10.00
2018-02-17T17:11:41.008Z,10.30
2018-02-17T17:14:08.527Z,9.77
2018-02-17T17:16:36.832Z,9.30
2018-02-17T17:19:05.160Z,9.33
2018-02-17T17:21:32.707Z,10.60
2018-02-17T17:24:00.274Z,10.43
2018-02-17T17:26:27.804Z,9.30
2018-02-17T17:28:55.317Z,8.83
2018-02-17T17:31:22.855Z,9.53
2018-02-17T17:33:50.364Z,10.60
2018-02-17T17:36:18.637Z,9.40
2018-02-17T17:38:46.929Z,9.63
2018-02-17T17:41:14.435Z,9.10
2018-02-17T17:43:41.970Z,9.37
2018-02-17T17:46:09.477Z,9.20
2018-02-17T17:48:37.057Z,9.33
2018-02-17T17:51:05.336Z,8.47
2018-02-17T17:53:33.627Z,8.73
2018-02-17T17:56:01.168Z,9.60
2018-02-17T17:58:28.680Z,9.73
2018-02-17T18:00:56.196Z,9.80
2018-02-17T18:03:24.479Z,10.00
2018-02-17T18:05:52.752Z,9.77
2018-02-17T18:08:21.039Z,8.73
2018-02-17T18:10:48.556Z,8.83
2018-02-17T18:13:16.164Z,9.60
2018-02-17T18:15:43.679Z,10.03
2018-02-17T18:18:11.208Z,9.50
2018-02-17T18:20:38.711Z,9.70
2018-02-17T18:23:06.280Z,8.80
2018-02-17T18:25:34.547Z,8.80
2018-02-17T18:28:02.048Z,9.17
2018-02-17T18:30:29.576Z,8.67
2018-02-17T18:32:57.856Z,11.03
2018-02-17T18:37:59.936Z,8.70
2018-02-17T18:40:28.239Z,9.03
2018-02-17T18:42:55.759Z,8.90
2018-02-17T18:45:23.278Z,10.13
2018-02-17T18:47:50.782Z,9.47
2018-02-17T18:50:18.303Z,9.70
2018-02-17T18:52:45.819Z,10.23
2018-02-17T18:55:14.109Z,9.13
2018-02-17T18:57:41.628Z,10.03
2018-02-17T19:00:09.172Z,9.37
2018-02-17T19:02:36.675Z,9.80
2018-02-17T19:05:04.952Z,9.83
2018-02-17T19:07:33.312Z,10.20
2018-02-17T19:10:00.819Z,9.87
2018-02-17T19:12:28.351Z,9.83
2018-02-17T19:14:56.624Z,9.70
2018-02-17T19:17:24.933Z,9.20
2018-02-17T19:19:52.440Z,9.30
2018-02-17T19:22:19.970Z,9.30
2018-02-17T19:24:47.479Z,9.70
2018-02-17T19:27:15.004Z,9.80
2018-02-17T19:29:42.512Z,8.97
2018-02-17T19:32:10.809Z,9.93
2018-02-17T19:34:38.372Z,10.07
2018-02-17T19:37:06.636Z,10.83
2018-02-17T19:39:34.907Z,9.57
2018-02-17T19:42:03.219Z,10.23
2018-02-17T19:44:30.735Z,12.37
2018-02-17T19:46:59.008Z,10.70
2018-02-17T19:49:26.526Z,9.50
2018-02-17T19:51:54.028Z,11.13
2018-02-17T19:54:21.545Z,10.90
2018-02-17T19:56:49.048Z,9.70
2018-02-17T19:59:17.345Z,9.80
2018-02-17T20:01:45.648Z,10.27
2018-02-17T20:04:13.180Z,10.87
2018-02-17T20:06:41.461Z,11.10
2018-02-17T20:09:08.987Z,10.80
2018-02-17T20:11:36.504Z,10.97
2018-02-17T20:14:04.036Z,11.00
2018-02-17T20:16:32.316Z,10.50
2018-02-17T20:19:00.637Z,11.43
2018-02-17T20:21:28.150Z,11.30
2018-02-17T20:23:56.437Z,10.63
2018-02-17T20:26:23.965Z,10.47
2018-02-17T20:28:51.473Z,10.33
2018-02-17T20:31:18.991Z,10.67
2018-02-17T20:33:46.497Z,9.97
2018-02-17T20:36:14.027Z,12.87
2018-02-17T20:38:42.299Z,9.83
2018-02-17T20:41:10.591Z,10.73
2018-02-17T20:43:38.108Z,9.80
2018-02-17T20:46:05.637Z,10.60
2018-02-17T20:48:33.155Z,11.70
2018-02-17T20:51:01.448Z,11.17
2018-02-17T20:53:28.964Z,11.00
2018-02-17T20:55:56.518Z,10.00
2018-02-17T20:58:24.040Z,10.43
2018-02-17T21:00:51.548Z,11.17
2018-02-17T21:03:19.071Z,10.97
2018-02-17T21:05:46.575Z,9.73
2018-02-17T21:08:14.105Z,10.80
2018-02-17T21:10:41.627Z,11.70
2018-02-17T21:13:09.167Z,10.50
2018-02-17T21:15:37.483Z,10.70
2018-02-17T21:18:05.056Z,9.63
2018-02-17T21:20:32.583Z,10.43
2018-02-17T21:23:00.885Z,9.50
2018-02-17T21:25:28.398Z,10.53
2018-02-17T21:27:55.927Z,10.63
2018-02-17T21:30:23.440Z,11.50
2018-02-17T21:32:50.960Z,11.40
2018-02-17T21:35:18.536Z,10.03
2018-02-17T21:37:46.018Z,10.40
2018-02-17T21:40:14.308Z,10.00
2018-02-17T21:42:41.815Z,10.50
2018-02-17T21:45:09.343Z,10.30
2018-02-17T21:47:36.863Z,9.37
2018-02-17T21:50:05.164Z,11.17
2018-02-17T21:52:32.684Z,10.17
2018-02-17T21:55:00.217Z,10.00
2018-02-17T21:57:27.736Z,10.43
2018-02-17T21:59:55.264Z,10.67
2018-02-17T22:02:22.781Z,10.67
2018-02-17T22:04:50.307Z,10.33
2018-02-17T22:07:18.575Z,9.70
2018-02-17T22:09:46.869Z,10.37
2018-02-17T22:12:15.160Z,10.80
2018-02-17T22:14:42.672Z,10.97
2018-02-17T22:17:10.208Z,11.40
2018-02-17T22:19:37.726Z,11.20
2018-02-17T22:22:06.016Z,9.53
2018-02-17T22:24:33.528Z,11.10
2018-02-17T22:27:01.049Z,10.70
2018-02-17T22:29:28.580Z,10.23
2018-02-17T22:31:56.868Z,9.40
2018-02-17T22:34:24.411Z,9.60
2018-02-17T22:36:52.707Z,9.67
2018-02-17T22:39:20.219Z,10.87
2018-02-17T22:41:47.766Z,10.17
2018-02-17T22:44:15.279Z,10.53
2018-02-17T22:46:42.803Z,10.03
2018-02-17T22:49:10.327Z,10.07
2018-02-17T22:51:37.832Z,9.70
2018-02-17T22:54:05.396Z,9.87
2018-02-17T22:56:33.688Z,9.97
2018-02-17T22:59:01.980Z,10.40
2018-02-17T23:01:29.498Z,10.37
2018-02-17T23:03:57.040Z,9.90
2018-02-17T23:06:24.564Z,10.23
2018-02-17T23:08:52.093Z,9.37
2018-02-17T23:11:19.599Z,9.97
2018-02-17T23:13:47.111Z,9.10
2018-02-17T23:16:14.727Z,10.87
2018-02-17T23:18:42.273Z,9.40
2018-02-17T23:21:09.786Z,9.30
2018-02-17T23:23:37.307Z,10.50
2018-02-17T23:26:04.832Z,8.60
2018-02-17T23:28:33.108Z,10.00
2018-02-17T23:31:01.392Z,9.63
2018-02-17T23:33:29.663Z,10.17
2018-02-17T23:35:57.952Z,10.00
2018-02-17T23:38:25.452Z,10.53
2018-02-17T23:40:52.998Z,10.20
2018-02-17T23:43:20.516Z,10.20
2018-02-17T23:45:48.808Z,11.33
2018-02-17T23:48:16.315Z,9.90
2018-02-17T23:50:43.848Z,10.67
2018-02-17T23:53:11.352Z,9.30
2018-02-17T23:55:38.882Z,10.20
2018-02-17T23:58:06.428Z,11.13
